<?xml version="1.0" encoding="UTF-8" standalone="no" ?>
<gpx xmlns="http://www.topografix.com/GPX/1/1" xmlns:xsi="http://www.w3.org/2001/XMLSchema-instance" xsi:schemaLocation="http://www.topografix.com/GPX/1/1 http://www.topografix.com/GPX/1/1/gpx.xsd" version="1.1" creator="VisuGPX - https://www.visugpx.com">
  <metadata>
    <name>Ballade à saint jean de Bueges</name>
    <desc><![CDATA[rando à saint jean de bueges avec Amelie, Serge, Renaud, Cathy et Damien ... et Ferrant et Talulla aussi !!]]></desc>
  </metadata>
  <trk>
    <name><![CDATA[st jean de buege]]></name>
    <desc><![CDATA[(null)]]></desc>
    <trkseg>
      <trkpt lat="43.70868" lon="3.49629">
        <ele>255.633759</ele>
        <time>2012-04-08T09:26:32Z</time>
      </trkpt>
      <trkpt lat="43.70868" lon="3.49629">
        <ele>255.633759</ele>
        <time>2012-04-08T09:26:33Z</time>
      </trkpt>
      <trkpt lat="43.70868" lon="3.49629">
        <ele>255.633759</ele>
        <time>2012-04-08T09:26:34Z</time>
      </trkpt>
      <trkpt lat="43.70898" lon="3.4958">
        <ele>257.025848</ele>
        <time>2012-04-08T09:30:28Z</time>
      </trkpt>
      <trkpt lat="43.70922" lon="3.49526">
        <ele>261.748291</ele>
        <time>2012-04-08T09:31:36Z</time>
      </trkpt>
      <trkpt lat="43.70945" lon="3.49471">
        <ele>269.796448</ele>
        <time>2012-04-08T09:32:23Z</time>
      </trkpt>
      <trkpt lat="43.7098" lon="3.49432">
        <ele>268.326233</ele>
        <time>2012-04-08T09:33:07Z</time>
      </trkpt>
      <trkpt lat="43.7102" lon="3.49402">
        <ele>277.582825</ele>
        <time>2012-04-08T09:33:47Z</time>
      </trkpt>
      <trkpt lat="43.71064" lon="3.49383">
        <ele>279.244324</ele>
        <time>2012-04-08T09:34:33Z</time>
      </trkpt>
      <trkpt lat="43.71108" lon="3.49371">
        <ele>287.713776</ele>
        <time>2012-04-08T09:35:24Z</time>
      </trkpt>
      <trkpt lat="43.71153" lon="3.49373">
        <ele>286.511993</ele>
        <time>2012-04-08T09:36:06Z</time>
      </trkpt>
      <trkpt lat="43.71199" lon="3.49384">
        <ele>284.250275</ele>
        <time>2012-04-08T09:36:53Z</time>
      </trkpt>
      <trkpt lat="43.7121" lon="3.49445">
        <ele>293.221863</ele>
        <time>2012-04-08T09:38:00Z</time>
      </trkpt>
      <trkpt lat="43.71226" lon="3.49505">
        <ele>282.419739</ele>
        <time>2012-04-08T09:38:42Z</time>
      </trkpt>
      <trkpt lat="43.71225" lon="3.49567">
        <ele>285.927307</ele>
        <time>2012-04-08T09:39:29Z</time>
      </trkpt>
      <trkpt lat="43.71262" lon="3.49603">
        <ele>281.203705</ele>
        <time>2012-04-08T09:40:23Z</time>
      </trkpt>
      <trkpt lat="43.71304" lon="3.49629">
        <ele>284.560852</ele>
        <time>2012-04-08T09:41:03Z</time>
      </trkpt>
      <trkpt lat="43.71341" lon="3.49665">
        <ele>283.545166</ele>
        <time>2012-04-08T09:41:52Z</time>
      </trkpt>
      <trkpt lat="43.71385" lon="3.49677">
        <ele>278.651184</ele>
        <time>2012-04-08T09:42:32Z</time>
      </trkpt>
      <trkpt lat="43.71405" lon="3.49733">
        <ele>286.861389</ele>
        <time>2012-04-08T09:43:18Z</time>
      </trkpt>
      <trkpt lat="43.71402" lon="3.49797">
        <ele>277.186707</ele>
        <time>2012-04-08T09:44:00Z</time>
      </trkpt>
      <trkpt lat="43.71436" lon="3.4984">
        <ele>282.065094</ele>
        <time>2012-04-08T09:44:41Z</time>
      </trkpt>
      <trkpt lat="43.71469" lon="3.49883">
        <ele>268.675812</ele>
        <time>2012-04-08T09:45:21Z</time>
      </trkpt>
      <trkpt lat="43.7151" lon="3.49911">
        <ele>255.717651</ele>
        <time>2012-04-08T09:46:03Z</time>
      </trkpt>
      <trkpt lat="43.71551" lon="3.49884">
        <ele>259.6633</ele>
        <time>2012-04-08T09:46:45Z</time>
      </trkpt>
      <trkpt lat="43.71567" lon="3.49942">
        <ele>261.587341</ele>
        <time>2012-04-08T09:47:32Z</time>
      </trkpt>
      <trkpt lat="43.71585" lon="3.49999">
        <ele>260.228851</ele>
        <time>2012-04-08T09:48:17Z</time>
      </trkpt>
      <trkpt lat="43.71614" lon="3.50048">
        <ele>256.265594</ele>
        <time>2012-04-08T09:48:58Z</time>
      </trkpt>
      <trkpt lat="43.71652" lon="3.5008">
        <ele>264.312195</ele>
        <time>2012-04-08T09:49:39Z</time>
      </trkpt>
      <trkpt lat="43.71691" lon="3.50113">
        <ele>261.850372</ele>
        <time>2012-04-08T09:50:22Z</time>
      </trkpt>
      <trkpt lat="43.71733" lon="3.50136">
        <ele>257.212769</ele>
        <time>2012-04-08T09:51:04Z</time>
      </trkpt>
      <trkpt lat="43.71763" lon="3.50183">
        <ele>256.506226</ele>
        <time>2012-04-08T09:51:46Z</time>
      </trkpt>
      <trkpt lat="43.7177" lon="3.50244">
        <ele>244.95929</ele>
        <time>2012-04-08T09:53:50Z</time>
      </trkpt>
      <trkpt lat="43.71772" lon="3.50307">
        <ele>244.89151</ele>
        <time>2012-04-08T09:54:39Z</time>
      </trkpt>
      <trkpt lat="43.71727" lon="3.50295">
        <ele>264.887054</ele>
        <time>2012-04-08T09:56:25Z</time>
      </trkpt>
      <trkpt lat="43.71682" lon="3.50285">
        <ele>263.949188</ele>
        <time>2012-04-08T09:57:21Z</time>
      </trkpt>
      <trkpt lat="43.71705" lon="3.50339">
        <ele>272.076935</ele>
        <time>2012-04-08T09:58:37Z</time>
      </trkpt>
      <trkpt lat="43.71693" lon="3.504">
        <ele>280.223785</ele>
        <time>2012-04-08T09:59:24Z</time>
      </trkpt>
      <trkpt lat="43.71691" lon="3.50464">
        <ele>282.035278</ele>
        <time>2012-04-08T10:00:12Z</time>
      </trkpt>
      <trkpt lat="43.71703" lon="3.50525">
        <ele>284.045868</ele>
        <time>2012-04-08T10:01:29Z</time>
      </trkpt>
      <trkpt lat="43.71723" lon="3.50581">
        <ele>295.369629</ele>
        <time>2012-04-08T10:02:10Z</time>
      </trkpt>
      <trkpt lat="43.71695" lon="3.5063">
        <ele>297.864594</ele>
        <time>2012-04-08T10:04:02Z</time>
      </trkpt>
      <trkpt lat="43.71652" lon="3.50649">
        <ele>300.987579</ele>
        <time>2012-04-08T10:04:50Z</time>
      </trkpt>
      <trkpt lat="43.71609" lon="3.5067">
        <ele>298.979034</ele>
        <time>2012-04-08T10:05:35Z</time>
      </trkpt>
      <trkpt lat="43.71566" lon="3.50691">
        <ele>291.075226</ele>
        <time>2012-04-08T10:06:25Z</time>
      </trkpt>
      <trkpt lat="43.71522" lon="3.5071">
        <ele>295.526306</ele>
        <time>2012-04-08T10:07:06Z</time>
      </trkpt>
      <trkpt lat="43.71481" lon="3.50737">
        <ele>295.258057</ele>
        <time>2012-04-08T10:07:48Z</time>
      </trkpt>
      <trkpt lat="43.71437" lon="3.50756">
        <ele>292.185608</ele>
        <time>2012-04-08T10:08:29Z</time>
      </trkpt>
      <trkpt lat="43.71392" lon="3.50767">
        <ele>309.540527</ele>
        <time>2012-04-08T10:09:06Z</time>
      </trkpt>
      <trkpt lat="43.7135" lon="3.50789">
        <ele>310.127777</ele>
        <time>2012-04-08T10:09:46Z</time>
      </trkpt>
      <trkpt lat="43.71304" lon="3.50792">
        <ele>302.10318</ele>
        <time>2012-04-08T10:10:28Z</time>
      </trkpt>
      <trkpt lat="43.71259" lon="3.50784">
        <ele>295.873962</ele>
        <time>2012-04-08T10:11:09Z</time>
      </trkpt>
      <trkpt lat="43.71214" lon="3.50786">
        <ele>298.715088</ele>
        <time>2012-04-08T10:11:48Z</time>
      </trkpt>
      <trkpt lat="43.71169" lon="3.50767">
        <ele>296.740417</ele>
        <time>2012-04-08T10:12:28Z</time>
      </trkpt>
      <trkpt lat="43.71134" lon="3.50725">
        <ele>297.087708</ele>
        <time>2012-04-08T10:13:05Z</time>
      </trkpt>
      <trkpt lat="43.71102" lon="3.50682">
        <ele>301.510651</ele>
        <time>2012-04-08T10:13:43Z</time>
      </trkpt>
      <trkpt lat="43.71073" lon="3.50633">
        <ele>302.945557</ele>
        <time>2012-04-08T10:14:19Z</time>
      </trkpt>
      <trkpt lat="43.71049" lon="3.50579">
        <ele>302.849579</ele>
        <time>2012-04-08T10:14:59Z</time>
      </trkpt>
      <trkpt lat="43.71018" lon="3.50532">
        <ele>304.587494</ele>
        <time>2012-04-08T10:15:38Z</time>
      </trkpt>
      <trkpt lat="43.70992" lon="3.5048">
        <ele>307.175964</ele>
        <time>2012-04-08T10:16:19Z</time>
      </trkpt>
      <trkpt lat="43.70948" lon="3.5046">
        <ele>305.095001</ele>
        <time>2012-04-08T10:17:05Z</time>
      </trkpt>
      <trkpt lat="43.70908" lon="3.50491">
        <ele>308.512329</ele>
        <time>2012-04-08T10:17:49Z</time>
      </trkpt>
      <trkpt lat="43.70896" lon="3.50552">
        <ele>311.835632</ele>
        <time>2012-04-08T10:18:31Z</time>
      </trkpt>
      <trkpt lat="43.70918" lon="3.50607">
        <ele>323.725555</ele>
        <time>2012-04-08T10:23:14Z</time>
      </trkpt>
      <trkpt lat="43.70952" lon="3.50651">
        <ele>317.603943</ele>
        <time>2012-04-08T10:24:31Z</time>
      </trkpt>
      <trkpt lat="43.70979" lon="3.507">
        <ele>325.469421</ele>
        <time>2012-04-08T10:27:10Z</time>
      </trkpt>
      <trkpt lat="43.70981" lon="3.50763">
        <ele>326.690918</ele>
        <time>2012-04-08T10:27:53Z</time>
      </trkpt>
      <trkpt lat="43.70963" lon="3.50821">
        <ele>323.861267</ele>
        <time>2012-04-08T10:28:33Z</time>
      </trkpt>
      <trkpt lat="43.70928" lon="3.50862">
        <ele>314.64975</ele>
        <time>2012-04-08T10:29:40Z</time>
      </trkpt>
      <trkpt lat="43.70903" lon="3.50914">
        <ele>306.573486</ele>
        <time>2012-04-08T10:30:22Z</time>
      </trkpt>
      <trkpt lat="43.70864" lon="3.50947">
        <ele>299.605194</ele>
        <time>2012-04-08T10:31:07Z</time>
      </trkpt>
      <trkpt lat="43.70822" lon="3.5097">
        <ele>296.181152</ele>
        <time>2012-04-08T10:31:53Z</time>
      </trkpt>
      <trkpt lat="43.70776" lon="3.50969">
        <ele>290.186371</ele>
        <time>2012-04-08T10:32:47Z</time>
      </trkpt>
      <trkpt lat="43.70736" lon="3.50998">
        <ele>285.113434</ele>
        <time>2012-04-08T10:34:08Z</time>
      </trkpt>
      <trkpt lat="43.70716" lon="3.51055">
        <ele>273.125793</ele>
        <time>2012-04-08T10:34:55Z</time>
      </trkpt>
      <trkpt lat="43.70682" lon="3.51095">
        <ele>255.826569</ele>
        <time>2012-04-08T10:36:55Z</time>
      </trkpt>
      <trkpt lat="43.70639" lon="3.51117">
        <ele>241.038818</ele>
        <time>2012-04-08T10:37:45Z</time>
      </trkpt>
      <trkpt lat="43.70595" lon="3.51102">
        <ele>241.985992</ele>
        <time>2012-04-08T10:38:34Z</time>
      </trkpt>
      <trkpt lat="43.70549" lon="3.5109">
        <ele>241.720154</ele>
        <time>2012-04-08T10:39:30Z</time>
      </trkpt>
      <trkpt lat="43.70533" lon="3.51079">
        <ele>244.707489</ele>
        <time>2012-04-08T10:45:03Z</time>
      </trkpt>
      <trkpt lat="43.70534" lon="3.51081">
        <ele>244.709732</ele>
        <time>2012-04-08T10:45:04Z</time>
      </trkpt>
      <trkpt lat="43.70535" lon="3.51084">
        <ele>244.725739</ele>
        <time>2012-04-08T10:45:14Z</time>
      </trkpt>
      <trkpt lat="43.70519" lon="3.51065">
        <ele>244.975769</ele>
        <time>2012-04-08T10:48:59Z</time>
      </trkpt>
      <trkpt lat="43.70568" lon="3.51101">
        <ele>236.403748</ele>
        <time>2012-04-08T10:52:02Z</time>
      </trkpt>
      <trkpt lat="43.70534" lon="3.51059">
        <ele>244.933899</ele>
        <time>2012-04-08T10:57:26Z</time>
      </trkpt>
      <trkpt lat="43.70578" lon="3.51077">
        <ele>281.364746</ele>
        <time>2012-04-08T11:05:53Z</time>
      </trkpt>
      <trkpt lat="43.70534" lon="3.51071">
        <ele>244.678558</ele>
        <time>2012-04-08T11:11:45Z</time>
      </trkpt>
      <trkpt lat="43.7054" lon="3.51071">
        <ele>244.931824</ele>
        <time>2012-04-08T11:11:48Z</time>
      </trkpt>
      <trkpt lat="43.70569" lon="3.51016">
        <ele>245.45285</ele>
        <time>2012-04-08T11:18:52Z</time>
      </trkpt>
      <trkpt lat="43.70546" lon="3.5107">
        <ele>244.3983</ele>
        <time>2012-04-08T11:21:37Z</time>
      </trkpt>
      <trkpt lat="43.70536" lon="3.5107">
        <ele>247.782593</ele>
        <time>2012-04-08T11:21:50Z</time>
      </trkpt>
      <trkpt lat="43.7051" lon="3.51018">
        <ele>239.066925</ele>
        <time>2012-04-08T11:22:32Z</time>
      </trkpt>
      <trkpt lat="43.70579" lon="3.50962">
        <ele>244.710068</ele>
        <time>2012-04-08T11:26:37Z</time>
      </trkpt>
      <trkpt lat="43.70579" lon="3.50962">
        <ele>244.700562</ele>
        <time>2012-04-08T11:26:48Z</time>
      </trkpt>
      <trkpt lat="43.70563" lon="3.51067">
        <ele>244.583771</ele>
        <time>2012-04-08T11:28:18Z</time>
      </trkpt>
      <trkpt lat="43.70593" lon="3.51115">
        <ele>233.229156</ele>
        <time>2012-04-08T11:40:49Z</time>
      </trkpt>
      <trkpt lat="43.70639" lon="3.51117">
        <ele>246.965088</ele>
        <time>2012-04-08T11:41:53Z</time>
      </trkpt>
      <trkpt lat="43.70682" lon="3.51095">
        <ele>250.005035</ele>
        <time>2012-04-08T11:42:44Z</time>
      </trkpt>
      <trkpt lat="43.70715" lon="3.51052">
        <ele>280.123932</ele>
        <time>2012-04-08T11:45:18Z</time>
      </trkpt>
      <trkpt lat="43.70738" lon="3.50997">
        <ele>275.189148</ele>
        <time>2012-04-08T11:46:11Z</time>
      </trkpt>
      <trkpt lat="43.70755" lon="3.50938">
        <ele>276.798309</ele>
        <time>2012-04-08T11:47:05Z</time>
      </trkpt>
      <trkpt lat="43.70789" lon="3.50981">
        <ele>279.192139</ele>
        <time>2012-04-08T11:48:03Z</time>
      </trkpt>
      <trkpt lat="43.70834" lon="3.50962">
        <ele>288.730896</ele>
        <time>2012-04-08T11:49:00Z</time>
      </trkpt>
      <trkpt lat="43.70875" lon="3.50938">
        <ele>299.846191</ele>
        <time>2012-04-08T11:49:50Z</time>
      </trkpt>
      <trkpt lat="43.70912" lon="3.50901">
        <ele>301.370575</ele>
        <time>2012-04-08T11:50:37Z</time>
      </trkpt>
      <trkpt lat="43.70952" lon="3.50872">
        <ele>320.644836</ele>
        <time>2012-04-08T11:51:47Z</time>
      </trkpt>
      <trkpt lat="43.70966" lon="3.50813">
        <ele>324.783997</ele>
        <time>2012-04-08T11:52:50Z</time>
      </trkpt>
      <trkpt lat="43.70981" lon="3.50753">
        <ele>325.061523</ele>
        <time>2012-04-08T11:53:36Z</time>
      </trkpt>
      <trkpt lat="43.71026" lon="3.50748">
        <ele>326.465485</ele>
        <time>2012-04-08T11:55:10Z</time>
      </trkpt>
      <trkpt lat="43.71054" lon="3.50797">
        <ele>323.28656</ele>
        <time>2012-04-08T11:55:50Z</time>
      </trkpt>
      <trkpt lat="43.71067" lon="3.50856">
        <ele>330.298889</ele>
        <time>2012-04-08T11:56:33Z</time>
      </trkpt>
      <trkpt lat="43.7106" lon="3.50917">
        <ele>329.525024</ele>
        <time>2012-04-08T11:57:20Z</time>
      </trkpt>
      <trkpt lat="43.71069" lon="3.50979">
        <ele>339.369568</ele>
        <time>2012-04-08T11:58:06Z</time>
      </trkpt>
      <trkpt lat="43.71075" lon="3.51041">
        <ele>350.340332</ele>
        <time>2012-04-08T11:58:48Z</time>
      </trkpt>
      <trkpt lat="43.711" lon="3.51094">
        <ele>353.09021</ele>
        <time>2012-04-08T11:59:38Z</time>
      </trkpt>
      <trkpt lat="43.71124" lon="3.51148">
        <ele>361.704132</ele>
        <time>2012-04-08T12:01:17Z</time>
      </trkpt>
      <trkpt lat="43.71154" lon="3.51196">
        <ele>369.363037</ele>
        <time>2012-04-08T12:02:33Z</time>
      </trkpt>
      <trkpt lat="43.71181" lon="3.51247">
        <ele>367.815918</ele>
        <time>2012-04-08T12:03:27Z</time>
      </trkpt>
      <trkpt lat="43.71194" lon="3.51307">
        <ele>372.533752</ele>
        <time>2012-04-08T12:04:21Z</time>
      </trkpt>
      <trkpt lat="43.71229" lon="3.51347">
        <ele>370.776794</ele>
        <time>2012-04-08T12:05:07Z</time>
      </trkpt>
      <trkpt lat="43.7123" lon="3.51283">
        <ele>379.43866</ele>
        <time>2012-04-08T12:07:40Z</time>
      </trkpt>
      <trkpt lat="43.71215" lon="3.51224">
        <ele>378.999207</ele>
        <time>2012-04-08T12:08:26Z</time>
      </trkpt>
      <trkpt lat="43.71216" lon="3.51161">
        <ele>380.48819</ele>
        <time>2012-04-08T12:09:15Z</time>
      </trkpt>
      <trkpt lat="43.71257" lon="3.51184">
        <ele>387.880402</ele>
        <time>2012-04-08T12:10:58Z</time>
      </trkpt>
      <trkpt lat="43.71302" lon="3.51192">
        <ele>396.785522</ele>
        <time>2012-04-08T12:12:33Z</time>
      </trkpt>
      <trkpt lat="43.71349" lon="3.51191">
        <ele>406.689148</ele>
        <time>2012-04-08T12:13:25Z</time>
      </trkpt>
      <trkpt lat="43.71392" lon="3.51212">
        <ele>418.239044</ele>
        <time>2012-04-08T12:14:29Z</time>
      </trkpt>
      <trkpt lat="43.71429" lon="3.5125">
        <ele>425.162354</ele>
        <time>2012-04-08T12:15:15Z</time>
      </trkpt>
      <trkpt lat="43.71464" lon="3.5129">
        <ele>432.142273</ele>
        <time>2012-04-08T12:16:03Z</time>
      </trkpt>
      <trkpt lat="43.71502" lon="3.51324">
        <ele>440.241364</ele>
        <time>2012-04-08T12:16:49Z</time>
      </trkpt>
      <trkpt lat="43.71545" lon="3.51347">
        <ele>442.085938</ele>
        <time>2012-04-08T12:17:34Z</time>
      </trkpt>
      <trkpt lat="43.71591" lon="3.51346">
        <ele>444.051575</ele>
        <time>2012-04-08T12:18:16Z</time>
      </trkpt>
      <trkpt lat="43.71636" lon="3.51335">
        <ele>441.513367</ele>
        <time>2012-04-08T12:20:58Z</time>
      </trkpt>
      <trkpt lat="43.71673" lon="3.51373">
        <ele>438.506409</ele>
        <time>2012-04-08T12:21:54Z</time>
      </trkpt>
      <trkpt lat="43.7169" lon="3.5143">
        <ele>426.327393</ele>
        <time>2012-04-08T12:22:38Z</time>
      </trkpt>
      <trkpt lat="43.71704" lon="3.5149">
        <ele>424.921967</ele>
        <time>2012-04-08T12:23:21Z</time>
      </trkpt>
      <trkpt lat="43.71742" lon="3.51524">
        <ele>424.945618</ele>
        <time>2012-04-08T12:24:09Z</time>
      </trkpt>
      <trkpt lat="43.71783" lon="3.51496">
        <ele>425.110626</ele>
        <time>2012-04-08T12:24:50Z</time>
      </trkpt>
      <trkpt lat="43.71823" lon="3.51465">
        <ele>429.240173</ele>
        <time>2012-04-08T12:26:13Z</time>
      </trkpt>
      <trkpt lat="43.71861" lon="3.51431">
        <ele>426.146729</ele>
        <time>2012-04-08T12:26:49Z</time>
      </trkpt>
      <trkpt lat="43.71904" lon="3.51411">
        <ele>424.903168</ele>
        <time>2012-04-08T12:27:30Z</time>
      </trkpt>
      <trkpt lat="43.71947" lon="3.51392">
        <ele>429.519196</ele>
        <time>2012-04-08T12:28:14Z</time>
      </trkpt>
      <trkpt lat="43.71987" lon="3.5136">
        <ele>435.380005</ele>
        <time>2012-04-08T12:28:56Z</time>
      </trkpt>
      <trkpt lat="43.72028" lon="3.51334">
        <ele>444.671753</ele>
        <time>2012-04-08T12:29:43Z</time>
      </trkpt>
      <trkpt lat="43.72072" lon="3.5132">
        <ele>438.11377</ele>
        <time>2012-04-08T12:30:54Z</time>
      </trkpt>
      <trkpt lat="43.72114" lon="3.51296">
        <ele>454.431061</ele>
        <time>2012-04-08T12:31:46Z</time>
      </trkpt>
      <trkpt lat="43.72157" lon="3.51273">
        <ele>454.003113</ele>
        <time>2012-04-08T12:32:33Z</time>
      </trkpt>
      <trkpt lat="43.72188" lon="3.5132">
        <ele>463.567139</ele>
        <time>2012-04-08T12:37:50Z</time>
      </trkpt>
      <trkpt lat="43.72232" lon="3.51337">
        <ele>470.816589</ele>
        <time>2012-04-08T12:38:36Z</time>
      </trkpt>
      <trkpt lat="43.72272" lon="3.51365">
        <ele>469.750061</ele>
        <time>2012-04-08T12:39:20Z</time>
      </trkpt>
      <trkpt lat="43.72303" lon="3.51411">
        <ele>474.850708</ele>
        <time>2012-04-08T12:40:09Z</time>
      </trkpt>
      <trkpt lat="43.72301" lon="3.51474">
        <ele>480.475159</ele>
        <time>2012-04-08T12:40:55Z</time>
      </trkpt>
      <trkpt lat="43.72296" lon="3.51537">
        <ele>490.029907</ele>
        <time>2012-04-08T12:41:38Z</time>
      </trkpt>
      <trkpt lat="43.7234" lon="3.51551">
        <ele>489.845886</ele>
        <time>2012-04-08T12:42:23Z</time>
      </trkpt>
      <trkpt lat="43.72383" lon="3.51571">
        <ele>493.483459</ele>
        <time>2012-04-08T12:43:08Z</time>
      </trkpt>
      <trkpt lat="43.7243" lon="3.51572">
        <ele>487.506348</ele>
        <time>2012-04-08T12:43:46Z</time>
      </trkpt>
      <trkpt lat="43.72475" lon="3.51568">
        <ele>493.79187</ele>
        <time>2012-04-08T12:44:26Z</time>
      </trkpt>
      <trkpt lat="43.72516" lon="3.51594">
        <ele>482.898743</ele>
        <time>2012-04-08T12:45:11Z</time>
      </trkpt>
      <trkpt lat="43.72505" lon="3.51656">
        <ele>492.672241</ele>
        <time>2012-04-08T12:45:55Z</time>
      </trkpt>
      <trkpt lat="43.72484" lon="3.51711">
        <ele>491.882935</ele>
        <time>2012-04-08T12:46:34Z</time>
      </trkpt>
      <trkpt lat="43.72457" lon="3.51761">
        <ele>493.477417</ele>
        <time>2012-04-08T12:47:15Z</time>
      </trkpt>
      <trkpt lat="43.72434" lon="3.51816">
        <ele>494.966919</ele>
        <time>2012-04-08T12:47:52Z</time>
      </trkpt>
      <trkpt lat="43.72433" lon="3.51878">
        <ele>496.817078</ele>
        <time>2012-04-08T12:48:31Z</time>
      </trkpt>
      <trkpt lat="43.72474" lon="3.51906">
        <ele>502.591919</ele>
        <time>2012-04-08T12:49:18Z</time>
      </trkpt>
      <trkpt lat="43.72514" lon="3.51936">
        <ele>495.198364</ele>
        <time>2012-04-08T12:49:58Z</time>
      </trkpt>
      <trkpt lat="43.72548" lon="3.51976">
        <ele>501.422546</ele>
        <time>2012-04-08T12:50:40Z</time>
      </trkpt>
      <trkpt lat="43.72591" lon="3.52">
        <ele>512.182922</ele>
        <time>2012-04-08T12:51:19Z</time>
      </trkpt>
      <trkpt lat="43.72634" lon="3.51978">
        <ele>510.194336</ele>
        <time>2012-04-08T12:52:06Z</time>
      </trkpt>
      <trkpt lat="43.72668" lon="3.51935">
        <ele>508.056091</ele>
        <time>2012-04-08T12:52:47Z</time>
      </trkpt>
      <trkpt lat="43.72702" lon="3.51895">
        <ele>519.968689</ele>
        <time>2012-04-08T12:53:31Z</time>
      </trkpt>
      <trkpt lat="43.72736" lon="3.51888">
        <ele>522.710327</ele>
        <time>2012-04-08T12:55:23Z</time>
      </trkpt>
      <trkpt lat="43.72736" lon="3.51888">
        <ele>522.710327</ele>
        <time>2012-04-08T12:55:23Z</time>
      </trkpt>
      <trkpt lat="43.72736" lon="3.51888">
        <ele>521.504883</ele>
        <time>2012-04-08T12:55:24Z</time>
      </trkpt>
      <trkpt lat="43.7275" lon="3.51947">
        <ele>524.534058</ele>
        <time>2012-04-08T12:59:27Z</time>
      </trkpt>
      <trkpt lat="43.72779" lon="3.51994">
        <ele>525.992065</ele>
        <time>2012-04-08T13:00:20Z</time>
      </trkpt>
      <trkpt lat="43.72824" lon="3.52008">
        <ele>526.453308</ele>
        <time>2012-04-08T13:00:58Z</time>
      </trkpt>
      <trkpt lat="43.72868" lon="3.51993">
        <ele>530.59198</ele>
        <time>2012-04-08T13:01:46Z</time>
      </trkpt>
      <trkpt lat="43.72891" lon="3.52048">
        <ele>520.191528</ele>
        <time>2012-04-08T13:03:00Z</time>
      </trkpt>
      <trkpt lat="43.72919" lon="3.52099">
        <ele>518.452881</ele>
        <time>2012-04-08T13:03:56Z</time>
      </trkpt>
      <trkpt lat="43.72959" lon="3.52127">
        <ele>512.980042</ele>
        <time>2012-04-08T13:04:43Z</time>
      </trkpt>
      <trkpt lat="43.72927" lon="3.52172">
        <ele>511.828247</ele>
        <time>2012-04-08T13:05:54Z</time>
      </trkpt>
      <trkpt lat="43.72883" lon="3.5219">
        <ele>505.650513</ele>
        <time>2012-04-08T13:06:33Z</time>
      </trkpt>
      <trkpt lat="43.72853" lon="3.52222">
        <ele>479.503906</ele>
        <time>2012-04-08T13:07:24Z</time>
      </trkpt>
      <trkpt lat="43.72853" lon="3.52222">
        <ele>479.503906</ele>
        <time>2012-04-08T13:07:25Z</time>
      </trkpt>
      <trkpt lat="43.72853" lon="3.52222">
        <ele>479.766724</ele>
        <time>2012-04-08T13:07:25Z</time>
      </trkpt>
      <trkpt lat="43.72853" lon="3.52222">
        <ele>480.093323</ele>
        <time>2012-04-08T13:07:26Z</time>
      </trkpt>
      <trkpt lat="43.72897" lon="3.52203">
        <ele>490.194702</ele>
        <time>2012-04-08T13:09:48Z</time>
      </trkpt>
      <trkpt lat="43.72943" lon="3.5219">
        <ele>492.855103</ele>
        <time>2012-04-08T13:10:35Z</time>
      </trkpt>
      <trkpt lat="43.72984" lon="3.52163">
        <ele>489.645081</ele>
        <time>2012-04-08T13:11:17Z</time>
      </trkpt>
      <trkpt lat="43.73027" lon="3.52143">
        <ele>495.477234</ele>
        <time>2012-04-08T13:11:54Z</time>
      </trkpt>
      <trkpt lat="43.73071" lon="3.52124">
        <ele>517.972717</ele>
        <time>2012-04-08T13:12:49Z</time>
      </trkpt>
      <trkpt lat="43.73106" lon="3.52085">
        <ele>518.497009</ele>
        <time>2012-04-08T13:13:33Z</time>
      </trkpt>
      <trkpt lat="43.73144" lon="3.52049">
        <ele>513.189575</ele>
        <time>2012-04-08T13:14:23Z</time>
      </trkpt>
      <trkpt lat="43.73172" lon="3.52">
        <ele>519.418152</ele>
        <time>2012-04-08T13:15:17Z</time>
      </trkpt>
      <trkpt lat="43.7321" lon="3.51967">
        <ele>519.367004</ele>
        <time>2012-04-08T13:16:03Z</time>
      </trkpt>
      <trkpt lat="43.73248" lon="3.51932">
        <ele>535.086487</ele>
        <time>2012-04-08T13:18:38Z</time>
      </trkpt>
      <trkpt lat="43.73294" lon="3.5194">
        <ele>535.188599</ele>
        <time>2012-04-08T13:20:28Z</time>
      </trkpt>
      <trkpt lat="43.7334" lon="3.51949">
        <ele>538.394958</ele>
        <time>2012-04-08T13:21:51Z</time>
      </trkpt>
      <trkpt lat="43.73381" lon="3.51919">
        <ele>552.994995</ele>
        <time>2012-04-08T13:22:33Z</time>
      </trkpt>
      <trkpt lat="43.73424" lon="3.51902">
        <ele>560.583496</ele>
        <time>2012-04-08T13:23:53Z</time>
      </trkpt>
      <trkpt lat="43.73458" lon="3.5186">
        <ele>543.029785</ele>
        <time>2012-04-08T13:24:38Z</time>
      </trkpt>
      <trkpt lat="43.73498" lon="3.51892">
        <ele>539.734619</ele>
        <time>2012-04-08T13:26:27Z</time>
      </trkpt>
      <trkpt lat="43.73502" lon="3.51829">
        <ele>533.23175</ele>
        <time>2012-04-08T13:27:56Z</time>
      </trkpt>
      <trkpt lat="43.73526" lon="3.51777">
        <ele>511.008667</ele>
        <time>2012-04-08T13:28:50Z</time>
      </trkpt>
      <trkpt lat="43.73528" lon="3.51715">
        <ele>505.620239</ele>
        <time>2012-04-08T13:29:43Z</time>
      </trkpt>
      <trkpt lat="43.73518" lon="3.51653">
        <ele>507.621521</ele>
        <time>2012-04-08T13:30:20Z</time>
      </trkpt>
      <trkpt lat="43.73503" lon="3.51594">
        <ele>491.569214</ele>
        <time>2012-04-08T13:31:12Z</time>
      </trkpt>
      <trkpt lat="43.7353" lon="3.51544">
        <ele>487.362488</ele>
        <time>2012-04-08T13:31:52Z</time>
      </trkpt>
      <trkpt lat="43.73538" lon="3.51521">
        <ele>488.33783</ele>
        <time>2012-04-08T13:32:07Z</time>
      </trkpt>
      <trkpt lat="43.73538" lon="3.51521">
        <ele>488.33783</ele>
        <time>2012-04-08T13:32:07Z</time>
      </trkpt>
      <trkpt lat="43.73538" lon="3.51519">
        <ele>486.78656</ele>
        <time>2012-04-08T13:32:08Z</time>
      </trkpt>
      <trkpt lat="43.7356" lon="3.51463">
        <ele>485.340942</ele>
        <time>2012-04-08T13:32:47Z</time>
      </trkpt>
      <trkpt lat="43.73592" lon="3.51417">
        <ele>473.351196</ele>
        <time>2012-04-08T13:33:27Z</time>
      </trkpt>
      <trkpt lat="43.736" lon="3.51356">
        <ele>464.409302</ele>
        <time>2012-04-08T13:34:06Z</time>
      </trkpt>
      <trkpt lat="43.73605" lon="3.51293">
        <ele>458.302094</ele>
        <time>2012-04-08T13:34:44Z</time>
      </trkpt>
      <trkpt lat="43.73639" lon="3.51253">
        <ele>447.180481</ele>
        <time>2012-04-08T13:35:23Z</time>
      </trkpt>
      <trkpt lat="43.73659" lon="3.51197">
        <ele>448.779022</ele>
        <time>2012-04-08T13:36:04Z</time>
      </trkpt>
      <trkpt lat="43.73689" lon="3.5115">
        <ele>454.339203</ele>
        <time>2012-04-08T13:36:44Z</time>
      </trkpt>
      <trkpt lat="43.737" lon="3.5109">
        <ele>449.994141</ele>
        <time>2012-04-08T13:37:27Z</time>
      </trkpt>
      <trkpt lat="43.73725" lon="3.51036">
        <ele>441.11438</ele>
        <time>2012-04-08T13:38:06Z</time>
      </trkpt>
      <trkpt lat="43.73748" lon="3.50982">
        <ele>444.724274</ele>
        <time>2012-04-08T13:38:44Z</time>
      </trkpt>
      <trkpt lat="43.73787" lon="3.50949">
        <ele>434.028137</ele>
        <time>2012-04-08T13:39:25Z</time>
      </trkpt>
      <trkpt lat="43.73821" lon="3.50907">
        <ele>429.734131</ele>
        <time>2012-04-08T13:40:01Z</time>
      </trkpt>
      <trkpt lat="43.73854" lon="3.50863">
        <ele>422.513428</ele>
        <time>2012-04-08T13:40:38Z</time>
      </trkpt>
      <trkpt lat="43.73899" lon="3.50861">
        <ele>421.591034</ele>
        <time>2012-04-08T13:41:16Z</time>
      </trkpt>
      <trkpt lat="43.73943" lon="3.50844">
        <ele>425.872131</ele>
        <time>2012-04-08T13:42:48Z</time>
      </trkpt>
      <trkpt lat="43.73987" lon="3.50827">
        <ele>426.587677</ele>
        <time>2012-04-08T13:43:26Z</time>
      </trkpt>
      <trkpt lat="43.74018" lon="3.50779">
        <ele>427.364258</ele>
        <time>2012-04-08T13:44:11Z</time>
      </trkpt>
      <trkpt lat="43.74046" lon="3.50728">
        <ele>425.337158</ele>
        <time>2012-04-08T13:44:54Z</time>
      </trkpt>
      <trkpt lat="43.7407" lon="3.50674">
        <ele>427.091125</ele>
        <time>2012-04-08T13:45:38Z</time>
      </trkpt>
      <trkpt lat="43.74091" lon="3.50618">
        <ele>433.220459</ele>
        <time>2012-04-08T13:46:19Z</time>
      </trkpt>
      <trkpt lat="43.74099" lon="3.50556">
        <ele>430.689087</ele>
        <time>2012-04-08T13:46:59Z</time>
      </trkpt>
      <trkpt lat="43.74092" lon="3.50618">
        <ele>429.7099</ele>
        <time>2012-04-08T13:54:18Z</time>
      </trkpt>
      <trkpt lat="43.74069" lon="3.50673">
        <ele>428.207794</ele>
        <time>2012-04-08T13:54:58Z</time>
      </trkpt>
      <trkpt lat="43.74046" lon="3.50728">
        <ele>430.331055</ele>
        <time>2012-04-08T13:55:36Z</time>
      </trkpt>
      <trkpt lat="43.74011" lon="3.50767">
        <ele>430.964203</ele>
        <time>2012-04-08T13:56:27Z</time>
      </trkpt>
      <trkpt lat="43.73971" lon="3.50735">
        <ele>415.203461</ele>
        <time>2012-04-08T13:57:13Z</time>
      </trkpt>
      <trkpt lat="43.73958" lon="3.50675">
        <ele>417.310944</ele>
        <time>2012-04-08T13:58:14Z</time>
      </trkpt>
      <trkpt lat="43.73914" lon="3.50685">
        <ele>401.478943</ele>
        <time>2012-04-08T13:58:59Z</time>
      </trkpt>
      <trkpt lat="43.73872" lon="3.5071">
        <ele>395.836639</ele>
        <time>2012-04-08T13:59:33Z</time>
      </trkpt>
      <trkpt lat="43.73838" lon="3.5067">
        <ele>393.016541</ele>
        <time>2012-04-08T14:01:31Z</time>
      </trkpt>
      <trkpt lat="43.73808" lon="3.50622">
        <ele>391.515015</ele>
        <time>2012-04-08T14:02:11Z</time>
      </trkpt>
      <trkpt lat="43.73763" lon="3.50615">
        <ele>396.692871</ele>
        <time>2012-04-08T14:03:15Z</time>
      </trkpt>
      <trkpt lat="43.73719" lon="3.50622">
        <ele>401.438629</ele>
        <time>2012-04-08T14:04:50Z</time>
      </trkpt>
      <trkpt lat="43.73674" lon="3.50637">
        <ele>397.773621</ele>
        <time>2012-04-08T14:05:30Z</time>
      </trkpt>
      <trkpt lat="43.73637" lon="3.50673">
        <ele>392.047363</ele>
        <time>2012-04-08T14:06:13Z</time>
      </trkpt>
      <trkpt lat="43.73598" lon="3.50707">
        <ele>389.987732</ele>
        <time>2012-04-08T14:07:06Z</time>
      </trkpt>
      <trkpt lat="43.73557" lon="3.50733">
        <ele>384.975616</ele>
        <time>2012-04-08T14:07:52Z</time>
      </trkpt>
      <trkpt lat="43.73512" lon="3.50729">
        <ele>393.11911</ele>
        <time>2012-04-08T14:09:17Z</time>
      </trkpt>
      <trkpt lat="43.73468" lon="3.50715">
        <ele>373.387054</ele>
        <time>2012-04-08T14:10:02Z</time>
      </trkpt>
      <trkpt lat="43.73425" lon="3.50695">
        <ele>381.173889</ele>
        <time>2012-04-08T14:10:44Z</time>
      </trkpt>
      <trkpt lat="43.7338" lon="3.50691">
        <ele>376.664734</ele>
        <time>2012-04-08T14:11:51Z</time>
      </trkpt>
      <trkpt lat="43.73336" lon="3.50673">
        <ele>360.2742</ele>
        <time>2012-04-08T14:12:32Z</time>
      </trkpt>
      <trkpt lat="43.73291" lon="3.50657">
        <ele>364.457428</ele>
        <time>2012-04-08T14:13:11Z</time>
      </trkpt>
      <trkpt lat="43.73247" lon="3.50641">
        <ele>361.00528</ele>
        <time>2012-04-08T14:13:52Z</time>
      </trkpt>
      <trkpt lat="43.73201" lon="3.50646">
        <ele>360.278076</ele>
        <time>2012-04-08T14:14:33Z</time>
      </trkpt>
      <trkpt lat="43.73157" lon="3.50634">
        <ele>354.203033</ele>
        <time>2012-04-08T14:15:19Z</time>
      </trkpt>
      <trkpt lat="43.73113" lon="3.50616">
        <ele>346.040161</ele>
        <time>2012-04-08T14:16:02Z</time>
      </trkpt>
      <trkpt lat="43.73068" lon="3.50601">
        <ele>338.412476</ele>
        <time>2012-04-08T14:16:47Z</time>
      </trkpt>
      <trkpt lat="43.73045" lon="3.50547">
        <ele>336.941223</ele>
        <time>2012-04-08T14:17:32Z</time>
      </trkpt>
      <trkpt lat="43.73001" lon="3.50535">
        <ele>320.875519</ele>
        <time>2012-04-08T14:18:39Z</time>
      </trkpt>
      <trkpt lat="43.72956" lon="3.50551">
        <ele>324.710236</ele>
        <time>2012-04-08T14:19:26Z</time>
      </trkpt>
      <trkpt lat="43.72917" lon="3.50583">
        <ele>297.913239</ele>
        <time>2012-04-08T14:20:14Z</time>
      </trkpt>
      <trkpt lat="43.72953" lon="3.50622">
        <ele>304.321075</ele>
        <time>2012-04-08T14:20:58Z</time>
      </trkpt>
      <trkpt lat="43.72918" lon="3.50665">
        <ele>300.267334</ele>
        <time>2012-04-08T14:22:57Z</time>
      </trkpt>
      <trkpt lat="43.72879" lon="3.50631">
        <ele>294.638947</ele>
        <time>2012-04-08T14:23:47Z</time>
      </trkpt>
      <trkpt lat="43.72834" lon="3.50623">
        <ele>299.037201</ele>
        <time>2012-04-08T14:24:35Z</time>
      </trkpt>
      <trkpt lat="43.72799" lon="3.50583">
        <ele>304.678711</ele>
        <time>2012-04-08T14:25:19Z</time>
      </trkpt>
      <trkpt lat="43.72765" lon="3.50542">
        <ele>308.384766</ele>
        <time>2012-04-08T14:26:05Z</time>
      </trkpt>
      <trkpt lat="43.72734" lon="3.50495">
        <ele>292.195709</ele>
        <time>2012-04-08T14:26:47Z</time>
      </trkpt>
      <trkpt lat="43.72707" lon="3.50444">
        <ele>284.680573</ele>
        <time>2012-04-08T14:27:32Z</time>
      </trkpt>
      <trkpt lat="43.72665" lon="3.50421">
        <ele>288.123627</ele>
        <time>2012-04-08T14:28:28Z</time>
      </trkpt>
      <trkpt lat="43.72636" lon="3.50373">
        <ele>278.888641</ele>
        <time>2012-04-08T14:29:23Z</time>
      </trkpt>
      <trkpt lat="43.72596" lon="3.50342">
        <ele>275.755402</ele>
        <time>2012-04-08T14:30:49Z</time>
      </trkpt>
      <trkpt lat="43.72558" lon="3.50308">
        <ele>283.193512</ele>
        <time>2012-04-08T14:31:40Z</time>
      </trkpt>
      <trkpt lat="43.7253" lon="3.50258">
        <ele>275.11084</ele>
        <time>2012-04-08T14:32:37Z</time>
      </trkpt>
      <trkpt lat="43.72494" lon="3.50219">
        <ele>272.078033</ele>
        <time>2012-04-08T14:33:39Z</time>
      </trkpt>
      <trkpt lat="43.72449" lon="3.50232">
        <ele>276.281067</ele>
        <time>2012-04-08T14:39:33Z</time>
      </trkpt>
      <trkpt lat="43.72403" lon="3.50231">
        <ele>263.807526</ele>
        <time>2012-04-08T14:40:22Z</time>
      </trkpt>
      <trkpt lat="43.72361" lon="3.50207">
        <ele>257.714264</ele>
        <time>2012-04-08T14:41:01Z</time>
      </trkpt>
      <trkpt lat="43.72317" lon="3.50195">
        <ele>269.356079</ele>
        <time>2012-04-08T14:41:43Z</time>
      </trkpt>
      <trkpt lat="43.72303" lon="3.50186">
        <ele>261.829681</ele>
        <time>2012-04-08T14:41:59Z</time>
      </trkpt>
      <trkpt lat="43.72303" lon="3.50186">
        <ele>261.829681</ele>
        <time>2012-04-08T14:41:59Z</time>
      </trkpt>
      <trkpt lat="43.72301" lon="3.50185">
        <ele>261.131439</ele>
        <time>2012-04-08T14:42:00Z</time>
      </trkpt>
      <trkpt lat="43.723" lon="3.50184">
        <ele>262.612549</ele>
        <time>2012-04-08T14:42:01Z</time>
      </trkpt>
      <trkpt lat="43.72257" lon="3.50165">
        <ele>265.304779</ele>
        <time>2012-04-08T14:42:55Z</time>
      </trkpt>
      <trkpt lat="43.72211" lon="3.50162">
        <ele>269.007019</ele>
        <time>2012-04-08T14:43:57Z</time>
      </trkpt>
      <trkpt lat="43.7218" lon="3.50116">
        <ele>264.515137</ele>
        <time>2012-04-08T14:44:45Z</time>
      </trkpt>
      <trkpt lat="43.72156" lon="3.50062">
        <ele>256.083832</ele>
        <time>2012-04-08T14:45:41Z</time>
      </trkpt>
      <trkpt lat="43.72129" lon="3.50011">
        <ele>256.309875</ele>
        <time>2012-04-08T14:46:30Z</time>
      </trkpt>
      <trkpt lat="43.72101" lon="3.49962">
        <ele>258.160828</ele>
        <time>2012-04-08T14:47:09Z</time>
      </trkpt>
      <trkpt lat="43.72056" lon="3.49971">
        <ele>251.719269</ele>
        <time>2012-04-08T14:47:49Z</time>
      </trkpt>
      <trkpt lat="43.72012" lon="3.4995">
        <ele>237.052948</ele>
        <time>2012-04-08T14:48:36Z</time>
      </trkpt>
      <trkpt lat="43.7197" lon="3.4993">
        <ele>254.711243</ele>
        <time>2012-04-08T14:49:23Z</time>
      </trkpt>
      <trkpt lat="43.71941" lon="3.49978">
        <ele>249.36795</ele>
        <time>2012-04-08T14:50:37Z</time>
      </trkpt>
      <trkpt lat="43.71917" lon="3.50031">
        <ele>247.050232</ele>
        <time>2012-04-08T14:51:20Z</time>
      </trkpt>
      <trkpt lat="43.71909" lon="3.50092">
        <ele>244.705078</ele>
        <time>2012-04-08T14:52:06Z</time>
      </trkpt>
      <trkpt lat="43.71866" lon="3.50111">
        <ele>254.181152</ele>
        <time>2012-04-08T14:53:13Z</time>
      </trkpt>
      <trkpt lat="43.71833" lon="3.50154">
        <ele>245.933014</ele>
        <time>2012-04-08T14:54:18Z</time>
      </trkpt>
      <trkpt lat="43.71798" lon="3.50193">
        <ele>244.55835</ele>
        <time>2012-04-08T14:55:25Z</time>
      </trkpt>
      <trkpt lat="43.71757" lon="3.50167">
        <ele>244.26059</ele>
        <time>2012-04-08T14:59:16Z</time>
      </trkpt>
      <trkpt lat="43.71719" lon="3.50131">
        <ele>249.442688</ele>
        <time>2012-04-08T15:00:02Z</time>
      </trkpt>
      <trkpt lat="43.7168" lon="3.50099">
        <ele>253.759155</ele>
        <time>2012-04-08T15:00:44Z</time>
      </trkpt>
      <trkpt lat="43.71639" lon="3.50071">
        <ele>253.041351</ele>
        <time>2012-04-08T15:01:44Z</time>
      </trkpt>
      <trkpt lat="43.71603" lon="3.50033">
        <ele>261.441986</ele>
        <time>2012-04-08T15:02:26Z</time>
      </trkpt>
      <trkpt lat="43.71583" lon="3.49977">
        <ele>258.951294</ele>
        <time>2012-04-08T15:03:07Z</time>
      </trkpt>
      <trkpt lat="43.71565" lon="3.49919">
        <ele>255.59726</ele>
        <time>2012-04-08T15:03:45Z</time>
      </trkpt>
      <trkpt lat="43.71521" lon="3.49901">
        <ele>253.581543</ele>
        <time>2012-04-08T15:04:56Z</time>
      </trkpt>
      <trkpt lat="43.71476" lon="3.49895">
        <ele>261.229675</ele>
        <time>2012-04-08T15:06:25Z</time>
      </trkpt>
      <trkpt lat="43.71444" lon="3.49849">
        <ele>270.368591</ele>
        <time>2012-04-08T15:07:03Z</time>
      </trkpt>
      <trkpt lat="43.7141" lon="3.49808">
        <ele>274.460419</ele>
        <time>2012-04-08T15:07:39Z</time>
      </trkpt>
      <trkpt lat="43.71405" lon="3.49745">
        <ele>269.859253</ele>
        <time>2012-04-08T15:08:13Z</time>
      </trkpt>
      <trkpt lat="43.71397" lon="3.49684">
        <ele>276.072021</ele>
        <time>2012-04-08T15:08:54Z</time>
      </trkpt>
      <trkpt lat="43.71352" lon="3.49669">
        <ele>280.341339</ele>
        <time>2012-04-08T15:09:27Z</time>
      </trkpt>
      <trkpt lat="43.71311" lon="3.49639">
        <ele>290.180084</ele>
        <time>2012-04-08T15:10:05Z</time>
      </trkpt>
      <trkpt lat="43.7127" lon="3.49611">
        <ele>282.142151</ele>
        <time>2012-04-08T15:11:10Z</time>
      </trkpt>
      <trkpt lat="43.71228" lon="3.4959">
        <ele>272.267426</ele>
        <time>2012-04-08T15:12:07Z</time>
      </trkpt>
      <trkpt lat="43.71232" lon="3.49526">
        <ele>274.115814</ele>
        <time>2012-04-08T15:12:43Z</time>
      </trkpt>
      <trkpt lat="43.71217" lon="3.49467">
        <ele>274.297333</ele>
        <time>2012-04-08T15:13:19Z</time>
      </trkpt>
      <trkpt lat="43.71211" lon="3.49405">
        <ele>282.258545</ele>
        <time>2012-04-08T15:13:55Z</time>
      </trkpt>
      <trkpt lat="43.71169" lon="3.49381">
        <ele>282.951294</ele>
        <time>2012-04-08T15:14:38Z</time>
      </trkpt>
      <trkpt lat="43.71125" lon="3.49364">
        <ele>275.96701</ele>
        <time>2012-04-08T15:15:11Z</time>
      </trkpt>
      <trkpt lat="43.7108" lon="3.49372">
        <ele>281.124786</ele>
        <time>2012-04-08T15:18:31Z</time>
      </trkpt>
      <trkpt lat="43.71038" lon="3.49395">
        <ele>271.375336</ele>
        <time>2012-04-08T15:19:15Z</time>
      </trkpt>
      <trkpt lat="43.71015" lon="3.49403">
        <ele>274.170807</ele>
        <time>2012-04-08T15:19:38Z</time>
      </trkpt>
      <trkpt lat="43.71015" lon="3.49403">
        <ele>274.170807</ele>
        <time>2012-04-08T15:19:38Z</time>
      </trkpt>
      <trkpt lat="43.71013" lon="3.49404">
        <ele>273.076538</ele>
        <time>2012-04-08T15:19:39Z</time>
      </trkpt>
      <trkpt lat="43.71012" lon="3.49404">
        <ele>271.159424</ele>
        <time>2012-04-08T15:19:40Z</time>
      </trkpt>
      <trkpt lat="43.71011" lon="3.49405">
        <ele>270.163849</ele>
        <time>2012-04-08T15:19:41Z</time>
      </trkpt>
      <trkpt lat="43.7101" lon="3.49405">
        <ele>269.867157</ele>
        <time>2012-04-08T15:19:42Z</time>
      </trkpt>
      <trkpt lat="43.71009" lon="3.49406">
        <ele>270.823395</ele>
        <time>2012-04-08T15:19:43Z</time>
      </trkpt>
      <trkpt lat="43.71008" lon="3.49407">
        <ele>271.968842</ele>
        <time>2012-04-08T15:19:44Z</time>
      </trkpt>
      <trkpt lat="43.71007" lon="3.49407">
        <ele>270.161469</ele>
        <time>2012-04-08T15:19:45Z</time>
      </trkpt>
      <trkpt lat="43.71005" lon="3.49408">
        <ele>271.342621</ele>
        <time>2012-04-08T15:19:46Z</time>
      </trkpt>
      <trkpt lat="43.71004" lon="3.49409">
        <ele>272.40918</ele>
        <time>2012-04-08T15:19:47Z</time>
      </trkpt>
      <trkpt lat="43.71003" lon="3.49409">
        <ele>270.952728</ele>
        <time>2012-04-08T15:19:48Z</time>
      </trkpt>
      <trkpt lat="43.71002" lon="3.4941">
        <ele>271.029419</ele>
        <time>2012-04-08T15:19:49Z</time>
      </trkpt>
      <trkpt lat="43.71001" lon="3.49411">
        <ele>271.034088</ele>
        <time>2012-04-08T15:19:50Z</time>
      </trkpt>
      <trkpt lat="43.71" lon="3.49412">
        <ele>270.028076</ele>
        <time>2012-04-08T15:19:51Z</time>
      </trkpt>
      <trkpt lat="43.70999" lon="3.49412">
        <ele>271.822205</ele>
        <time>2012-04-08T15:19:52Z</time>
      </trkpt>
      <trkpt lat="43.70998" lon="3.49413">
        <ele>268.695068</ele>
        <time>2012-04-08T15:19:53Z</time>
      </trkpt>
      <trkpt lat="43.70998" lon="3.49414">
        <ele>268.401093</ele>
        <time>2012-04-08T15:19:54Z</time>
      </trkpt>
      <trkpt lat="43.70997" lon="3.49414">
        <ele>267.552429</ele>
        <time>2012-04-08T15:19:55Z</time>
      </trkpt>
      <trkpt lat="43.70996" lon="3.49415">
        <ele>268.073853</ele>
        <time>2012-04-08T15:19:56Z</time>
      </trkpt>
      <trkpt lat="43.70995" lon="3.49415">
        <ele>267.979126</ele>
        <time>2012-04-08T15:19:57Z</time>
      </trkpt>
      <trkpt lat="43.70994" lon="3.49415">
        <ele>267.99585</ele>
        <time>2012-04-08T15:19:58Z</time>
      </trkpt>
      <trkpt lat="43.70994" lon="3.49416">
        <ele>268.328766</ele>
        <time>2012-04-08T15:19:59Z</time>
      </trkpt>
      <trkpt lat="43.70993" lon="3.49417">
        <ele>267.81311</ele>
        <time>2012-04-08T15:20:00Z</time>
      </trkpt>
      <trkpt lat="43.70992" lon="3.49418">
        <ele>267.881012</ele>
        <time>2012-04-08T15:20:01Z</time>
      </trkpt>
      <trkpt lat="43.70991" lon="3.49419">
        <ele>267.519012</ele>
        <time>2012-04-08T15:20:02Z</time>
      </trkpt>
      <trkpt lat="43.7099" lon="3.4942">
        <ele>269.468506</ele>
        <time>2012-04-08T15:20:03Z</time>
      </trkpt>
      <trkpt lat="43.7099" lon="3.4942">
        <ele>267.817993</ele>
        <time>2012-04-08T15:20:04Z</time>
      </trkpt>
      <trkpt lat="43.70989" lon="3.49422">
        <ele>265.15329</ele>
        <time>2012-04-08T15:20:05Z</time>
      </trkpt>
      <trkpt lat="43.70988" lon="3.49423">
        <ele>263.68692</ele>
        <time>2012-04-08T15:20:06Z</time>
      </trkpt>
      <trkpt lat="43.70987" lon="3.49424">
        <ele>262.334656</ele>
        <time>2012-04-08T15:20:07Z</time>
      </trkpt>
      <trkpt lat="43.70985" lon="3.49425">
        <ele>262.9599</ele>
        <time>2012-04-08T15:20:08Z</time>
      </trkpt>
      <trkpt lat="43.70984" lon="3.49426">
        <ele>265.111145</ele>
        <time>2012-04-08T15:20:09Z</time>
      </trkpt>
      <trkpt lat="43.70982" lon="3.49428">
        <ele>265.990204</ele>
        <time>2012-04-08T15:20:11Z</time>
      </trkpt>
      <trkpt lat="43.70981" lon="3.49429">
        <ele>267.247437</ele>
        <time>2012-04-08T15:20:12Z</time>
      </trkpt>
      <trkpt lat="43.7098" lon="3.4943">
        <ele>268.307495</ele>
        <time>2012-04-08T15:20:13Z</time>
      </trkpt>
      <trkpt lat="43.70978" lon="3.49432">
        <ele>269.343811</ele>
        <time>2012-04-08T15:20:15Z</time>
      </trkpt>
      <trkpt lat="43.70976" lon="3.49434">
        <ele>268.101715</ele>
        <time>2012-04-08T15:20:17Z</time>
      </trkpt>
      <trkpt lat="43.70975" lon="3.49435">
        <ele>269.079498</ele>
        <time>2012-04-08T15:20:18Z</time>
      </trkpt>
      <trkpt lat="43.70974" lon="3.49435">
        <ele>269.647339</ele>
        <time>2012-04-08T15:20:19Z</time>
      </trkpt>
      <trkpt lat="43.70972" lon="3.49436">
        <ele>270.118378</ele>
        <time>2012-04-08T15:20:20Z</time>
      </trkpt>
      <trkpt lat="43.70971" lon="3.49437">
        <ele>270.057739</ele>
        <time>2012-04-08T15:20:21Z</time>
      </trkpt>
      <trkpt lat="43.7097" lon="3.49437">
        <ele>270.951447</ele>
        <time>2012-04-08T15:20:22Z</time>
      </trkpt>
      <trkpt lat="43.70969" lon="3.49438">
        <ele>267.110443</ele>
        <time>2012-04-08T15:20:23Z</time>
      </trkpt>
      <trkpt lat="43.70968" lon="3.49439">
        <ele>267.830902</ele>
        <time>2012-04-08T15:20:24Z</time>
      </trkpt>
      <trkpt lat="43.70967" lon="3.49439">
        <ele>268.245422</ele>
        <time>2012-04-08T15:20:25Z</time>
      </trkpt>
      <trkpt lat="43.70938" lon="3.49487">
        <ele>268.042633</ele>
        <time>2012-04-08T15:21:05Z</time>
      </trkpt>
      <trkpt lat="43.70917" lon="3.49543">
        <ele>262.587708</ele>
        <time>2012-04-08T15:21:51Z</time>
      </trkpt>
      <trkpt lat="43.70892" lon="3.49596">
        <ele>256.463989</ele>
        <time>2012-04-08T15:22:32Z</time>
      </trkpt>
    </trkseg>
  </trk>
</gpx>